• Join FlightAware (Why Join?)
  • Login
  • US Flag 
05:26PM EDT


 

Airport Tracker/Info


-or-


 

Live Flight TrackerFlight Track Log ✈ AWE1600 ✈ 25-Apr-2013 ✈ KBDL - KPHL

Flight Track Log - Related Links

Times and Time Zones

All times are in EDT time to prevent confusion due to time zone crossing. See the AWE1600 flight status page for this flight to view local times or setup timezone preferences in your user account.

Time Position Orientation Groundspeed Altitude Reporting Facility
EDT Latitude Longitude Course Direction KTS MPH feet Rate Location/Type
07:09AM 41.9478 -72.6775 132° Southeast 163 188 1,000  Level Boston Center
07:10AM 41.9500 -72.6272 87° East 185 213 2,600 2,520 Climbing Boston Center
07:11AM 41.9083 -72.5881 145° Southeast 245 282 4,800 3,000 Climbing Boston Center
07:12AM 41.7142 -72.5809 143° Southeast  Level FlightAware Approximate
07:12AM 41.8458 -72.5544 158° South 245 282 8,100  Level Boston Center
07:13AM 41.6444 -72.5388 160° South  Level FlightAware Approximate
07:13AM 41.7753 -72.5125 156° South 268 308 10,100  Level Boston Center
07:14AM 41.5886 -72.4662 132° Southeast  Level FlightAware Approximate
07:14AM 41.7003 -72.4650 155° Southeast 280 322 13,400  Level Boston Center
07:15AM 41.6292 -72.4233 156° South 280 322 16,800 2,700 Climbing Boston Center
07:16AM 41.5542 -72.3792 156° South 285 328 18,900 1,560 Climbing Boston Center
07:17AM 41.4750 -72.3542 167° South 296 341 20,000 1,200 Climbing Boston Center
07:18AM 41.3958 -72.3461 176° South 291 335 21,400 960 Climbing Boston Center
07:19AM 41.3125 -72.3433 179° South 291 335 22,000 300 Climbing Boston Center
07:20AM 41.2333 -72.3408 179° South 306 352 22,000 720 Level Boston Center
07:21AM 41.1417 -72.3325 176° South 316 364 23,500 1,200 Climbing Boston Center
07:22AM 41.0456 -72.2806 158° South 342 394 24,500 1,200 Climbing Boston Center
07:23AM 40.9414 -72.2478 167° South 366 421 25,900 720 Climbing Boston Center
07:24AM 40.8603 -72.3247 216° Southwest 344 396 26,000  Climbing Boston Center
07:25AM 40.7875 -72.4208 225° Southwest 342 394 26,000  Level Boston Center
07:26AM 40.7164 -72.5139 225° Southwest 361 415 26,000 -480 Level Boston Center
07:27AM 40.6156 -72.6631 228° Southwest 353 406 24,900 -900 Descending New York Center
07:28AM 40.5514 -72.7514 226° Southwest 343 395 23,800 -1,140 Descending New York Center
07:29AM 40.4939 -72.8342 228° Southwest 328 377 22,700 -1,560 Descending New York Center
07:30AM 40.4361 -72.9144 227° Southwest 316 364 20,800 -1,380 Descending New York Center
07:31AM 40.3744 -72.9833 220° Southwest 305 351 20,000 -420 Descending New York Center
07:32AM 40.2922 -73.0242 201° Southwest 299 344 20,000  Level New York Center
07:33AM 40.2122 -73.0678 203° Southwest 310 357 20,000  Level New York Center
07:34AM 40.1303 -73.1111 202° Southwest 321 369 20,000 -60 Level New York Center
07:35AM 40.0458 -73.1597 204° Southwest 321 369 19,900 -60 Descending New York Center
07:36AM 39.9917 -73.2528 233° Southwest 321 369 19,900  Level New York Center
07:37AM 39.9417 -73.3511 236° Southwest 327 376 20,000  Climbing New York Center
07:38AM 39.8831 -73.4625 236° Southwest 333 383 20,000  Level New York Center
07:39AM 39.8306 -73.5631 236° Southwest 338 389 20,000 -60 Level New York Center
07:40AM 39.7781 -73.6611 235° Southwest 343 395 19,900 -600 Descending New York Center
07:41AM 39.7278 -73.7561 235° Southwest 337 388 18,900 -960 Descending New York Center
07:42AM 39.6881 -73.8408 239° Southwest 326 375 18,000 -960 Descending New York Center
07:44AM 39.6192 -73.9806 237° Southwest 309 356 16,700 -1,200 Descending Washington Center
07:45AM 39.5661 -74.0625 230° Southwest 304 350 15,300 -1,500 Descending Washington Center
07:46AM 39.5303 -74.1278 235° Southwest 278 320 14,100 -1,200 Descending FAA TRACON SMA TRACON (SMA)
07:46AM 39.5253 -74.1542 256° West 260 299 14,000 -180 Descending FAA TRACON SMA TRACON (SMA)
07:46AM 39.5258 -74.1828 271° West 253 291 14,000  Level FAA TRACON SMA TRACON (SMA)
07:47AM 39.5250 -74.2194 268° West 260 299 14,000 -180 Level FAA TRACON SMA TRACON (SMA)
07:47AM 39.5253 -74.2486 271° West 262 302 13,900 -780 Descending FAA TRACON SMA TRACON (SMA)
07:47AM 39.5256 -74.2772 271° West 261 300 13,500 -1,500 Descending FAA TRACON SMA TRACON (SMA)
07:48AM 39.5275 -74.3108 274° West 259 298 12,900 -1,680 Descending FAA TRACON SMA TRACON (SMA)
07:48AM 39.5267 -74.3411 268° West 257 296 12,400 -1,080 Descending FAA TRACON SMA TRACON (SMA)
07:48AM 39.5278 -74.3692 273° West 256 295 12,200 -780 Descending FAA TRACON SMA TRACON (SMA)
07:49AM 39.5289 -74.4047 272° West 256 295 11,900 -780 Descending FAA TRACON SMA TRACON (SMA)
07:49AM 39.5292 -74.4325 271° West 258 297 11,700 -780 Descending FAA TRACON SMA TRACON (SMA)
07:49AM 39.5303 -74.4592 273° West 257 296 11,400 -780 Descending FAA TRACON SMA TRACON (SMA)
07:50AM 39.5294 -74.4969 268° West 254 292 11,200 -780 Descending FAA TRACON SMA TRACON (SMA)
07:50AM 39.5303 -74.5244 272° West 251 289 10,900 -780 Descending FAA TRACON SMA TRACON (SMA)
07:50AM 39.5311 -74.5500 272° West 247 284 10,700 -780 Descending FAA TRACON SMA TRACON (SMA)
07:51AM 39.5322 -74.5833 272° West 244 281 10,400 -780 Descending FAA TRACON SMA TRACON (SMA)
07:51AM 39.5325 -74.6108 271° West 242 278 10,200 -600 Descending FAA TRACON SMA TRACON (SMA)
07:51AM 39.5325 -74.6378 270° West 241 277 10,000 -780 Descending FAA TRACON SMA TRACON (SMA)
07:52AM 39.5331 -74.6708 271° West 240 276 9,700 -780 Descending FAA TRACON SMA TRACON (SMA)
07:52AM 39.5336 -74.6972 272° West 239 275 9,500 -600 Descending FAA TRACON SMA TRACON (SMA)
07:52AM 39.5336 -74.7239 270° West 240 276 9,300 -780 Descending FAA TRACON SMA TRACON (SMA)
07:53AM 39.5356 -74.7522 275° West 237 273 9,000 -480 Descending FAA TRACON SMA TRACON (SMA)
07:53AM 39.5350 -74.7822 269° West 234 269 9,000  Level FAA TRACON SMA TRACON (SMA)
07:53AM 39.5353 -74.8081 271° West 233 268 9,000 -300 Level FAA TRACON SMA TRACON (SMA)
07:54AM 39.5356 -74.8381 271° West 232 267 8,800 -1,080 Descending FAA TRACON SMA TRACON (SMA)
07:54AM 39.5369 -74.8650 274° West 228 262 8,300 -1,080 Descending FAA TRACON SMA TRACON (SMA)
07:54AM 39.5486 -74.8858 306° West 245 282 8,100 -480 Descending FAA TRACON SMA TRACON (SMA)
07:55AM 39.5747 -74.8978 341° North 282 325 8,000 -780 Descending FAA TRACON SMA TRACON (SMA)
07:55AM 39.6011 -74.9058 347° North 284 327 7,600 -1,260 Descending FAA TRACON SMA TRACON (SMA)
07:55AM 39.6239 -74.9133 346° North 276 318 7,200 -1,260 Descending FAA TRACON SMA TRACON (SMA)
07:56AM 39.6506 -74.9231 344° North 269 310 6,800 -1,380 Descending FAA TRACON SMA TRACON (SMA)
07:56AM 39.6722 -74.9322 342° North 262 302 6,300 -1,200 Descending FAA TRACON SMA TRACON (SMA)
07:56AM 39.6925 -74.9425 339° North 257 296 6,000 -480 Descending FAA TRACON SMA TRACON (SMA)
07:57AM 39.7156 -74.9517 343° North 235 270 6,000 -300 Level FAA TRACON SMA TRACON (SMA)
07:57AM 39.7353 -74.9556 351° North 214 246 5,800 -900 Descending FAA TRACON SMA TRACON (SMA)
07:57AM 39.7528 -74.9589 352° North 207 238 5,400 -1,380 Descending FAA TRACON SMA TRACON (SMA)
07:58AM 39.7722 -74.9631 351° North 196 226 4,900 -1,800 Descending FAA TRACON SMA TRACON (SMA)
07:58AM 39.7900 -74.9675 349° North 195 224 4,200 -1,800 Descending FAA TRACON SMA TRACON (SMA)
07:58AM 39.8064 -74.9711 350° North 195 224 3,700 -1,680 Descending FAA TRACON SMA TRACON (SMA)
07:59AM 39.8264 -74.9758 350° North 191 220 3,100 -900 Descending FAA TRACON SMA TRACON (SMA)
07:59AM 39.8419 -74.9794 350° North 186 214 3,100 -180 Level FAA TRACON SMA TRACON (SMA)
07:59AM 39.8578 -74.9833 349° North 187 215 3,000 -480 Descending FAA TRACON SMA TRACON (SMA)
08:00AM 39.8742 -74.9961 329° Northwest 170 196 2,800 -900 Descending FAA TRACON SMA TRACON (SMA)
08:00AM 39.8864 -75.0069 326° Northwest 164 189 2,400 -1,200 Descending FAA TRACON SMA TRACON (SMA)